sensor_id;sensor_type;location;lat;lon;timestamp;P1;durP1;ratioP1;P2;durP2;ratioP2
59338;SDS011;45117;50.960;5.500;2022-07-06T00:01:38;5.47;;;2.40;;
59338;SDS011;45117;50.960;5.500;2022-07-06T00:04:04;4.55;;;1.98;;
59338;SDS011;45117;50.960;5.500;2022-07-06T00:06:31;4.47;;;2.20;;
59338;SDS011;45117;50.960;5.500;2022-07-06T00:08:58;5.20;;;2.85;;
59338;SDS011;45117;50.960;5.500;2022-07-06T00:11:25;4.03;;;2.28;;
59338;SDS011;45117;50.960;5.500;2022-07-06T00:13:52;6.03;;;2.40;;
59338;SDS011;45117;50.960;5.500;2022-07-06T00:16:20;5.07;;;2.75;;
59338;SDS011;45117;50.960;5.500;2022-07-06T00:18:47;6.57;;;2.75;;
59338;SDS011;45117;50.960;5.500;2022-07-06T00:21:13;8.27;;;2.97;;
59338;SDS011;45117;50.960;5.500;2022-07-06T00:23:40;3.58;;;2.30;;
59338;SDS011;45117;50.960;5.500;2022-07-06T00:26:06;4.78;;;3.00;;
59338;SDS011;45117;50.960;5.500;2022-07-06T00:28:33;4.50;;;2.65;;
59338;SDS011;45117;50.960;5.500;2022-07-06T00:30:59;5.50;;;3.05;;
59338;SDS011;45117;50.960;5.500;2022-07-06T00:33:29;7.22;;;3.25;;
59338;SDS011;45117;50.960;5.500;2022-07-06T00:35:55;4.82;;;3.00;;
59338;SDS011;45117;50.960;5.500;2022-07-06T00:38:22;5.20;;;3.38;;
59338;SDS011;45117;50.960;5.500;2022-07-06T00:40:48;7.68;;;3.35;;
59338;SDS011;45117;50.960;5.500;2022-07-06T00:43:15;6.57;;;3.50;;
59338;SDS011;45117;50.960;5.500;2022-07-06T00:45:41;5.75;;;2.83;;
59338;SDS011;45117;50.960;5.500;2022-07-06T00:48:08;6.05;;;3.17;;
59338;SDS011;45117;50.960;5.500;2022-07-06T00:50:36;8.27;;;3.72;;
59338;SDS011;45117;50.960;5.500;2022-07-06T00:53:04;5.65;;;3.75;;
59338;SDS011;45117;50.960;5.500;2022-07-06T00:55:33;6.28;;;3.50;;
59338;SDS011;45117;50.960;5.500;2022-07-06T00:58:01;5.32;;;3.17;;
59338;SDS011;45117;50.960;5.500;2022-07-06T01:00:29;6.35;;;3.58;;
59338;SDS011;45117;50.960;5.500;2022-07-06T01:02:56;7.00;;;3.10;;
59338;SDS011;45117;50.960;5.500;2022-07-06T01:05:23;4.13;;;2.92;;
59338;SDS011;45117;50.960;5.500;2022-07-06T01:07:52;5.90;;;3.60;;
59338;SDS011;45117;50.960;5.500;2022-07-06T01:10:20;7.45;;;3.70;;
59338;SDS011;45117;50.960;5.500;2022-07-06T01:12:47;4.43;;;2.63;;
59338;SDS011;45117;50.960;5.500;2022-07-06T01:15:15;5.80;;;3.22;;
59338;SDS011;45117;50.960;5.500;2022-07-06T01:17:43;6.18;;;3.22;;
59338;SDS011;45117;50.960;5.500;2022-07-06T01:20:12;8.05;;;3.28;;
59338;SDS011;45117;50.960;5.500;2022-07-06T01:22:39;7.53;;;3.88;;
59338;SDS011;45117;50.960;5.500;2022-07-06T01:25:06;6.05;;;3.70;;
59338;SDS011;45117;50.960;5.500;2022-07-06T01:27:34;7.93;;;3.80;;
59338;SDS011;45117;50.960;5.500;2022-07-06T01:30:03;4.22;;;3.50;;
59338;SDS011;45117;50.960;5.500;2022-07-06T01:32:31;5.18;;;3.17;;
59338;SDS011;45117;50.960;5.500;2022-07-06T01:34:57;5.43;;;3.42;;
59338;SDS011;45117;50.960;5.500;2022-07-06T01:37:25;9.85;;;3.83;;
59338;SDS011;45117;50.960;5.500;2022-07-06T01:39:52;7.88;;;3.53;;
59338;SDS011;45117;50.960;5.500;2022-07-06T01:42:18;7.97;;;4.00;;
59338;SDS011;45117;50.960;5.500;2022-07-06T01:44:45;5.47;;;3.85;;
59338;SDS011;45117;50.960;5.500;2022-07-06T01:47:11;5.30;;;3.25;;
59338;SDS011;45117;50.960;5.500;2022-07-06T01:49:38;8.13;;;3.70;;
59338;SDS011;45117;50.960;5.500;2022-07-06T01:52:05;6.82;;;4.20;;
59338;SDS011;45117;50.960;5.500;2022-07-06T01:54:33;6.90;;;3.58;;
59338;SDS011;45117;50.960;5.500;2022-07-06T01:57:00;6.72;;;3.95;;
59338;SDS011;45117;50.960;5.500;2022-07-06T01:59:26;7.20;;;4.03;;
59338;SDS011;45117;50.960;5.500;2022-07-06T02:01:53;7.80;;;4.28;;
59338;SDS011;45117;50.960;5.500;2022-07-06T02:04:19;6.63;;;4.40;;
59338;SDS011;45117;50.960;5.500;2022-07-06T02:06:46;7.03;;;3.63;;
59338;SDS011;45117;50.960;5.500;2022-07-06T02:09:12;7.47;;;4.18;;
59338;SDS011;45117;50.960;5.500;2022-07-06T02:11:41;6.13;;;3.20;;
59338;SDS011;45117;50.960;5.500;2022-07-06T02:14:07;4.22;;;3.03;;
59338;SDS011;45117;50.960;5.500;2022-07-06T02:16:34;4.88;;;3.75;;
59338;SDS011;45117;50.960;5.500;2022-07-06T02:19:00;6.45;;;3.38;;
59338;SDS011;45117;50.960;5.500;2022-07-06T02:21:27;5.53;;;3.58;;
59338;SDS011;45117;50.960;5.500;2022-07-06T02:23:54;9.05;;;4.13;;
59338;SDS011;45117;50.960;5.500;2022-07-06T02:26:21;9.95;;;3.70;;
59338;SDS011;45117;50.960;5.500;2022-07-06T02:28:49;7.07;;;3.60;;
59338;SDS011;45117;50.960;5.500;2022-07-06T02:31:15;6.75;;;3.50;;
59338;SDS011;45117;50.960;5.500;2022-07-06T02:33:42;6.97;;;3.67;;
59338;SDS011;45117;50.960;5.500;2022-07-06T02:36:08;6.63;;;3.35;;
59338;SDS011;45117;50.960;5.500;2022-07-06T02:38:35;5.97;;;3.88;;
59338;SDS011;45117;50.960;5.500;2022-07-06T02:41:01;8.25;;;4.38;;
59338;SDS011;45117;50.960;5.500;2022-07-06T02:43:28;7.68;;;3.70;;
59338;SDS011;45117;50.960;5.500;2022-07-06T02:45:56;7.93;;;4.43;;
59338;SDS011;45117;50.960;5.500;2022-07-06T02:48:23;7.97;;;3.63;;
59338;SDS011;45117;50.960;5.500;2022-07-06T02:50:49;7.93;;;4.13;;
59338;SDS011;45117;50.960;5.500;2022-07-06T02:53:17;5.03;;;3.72;;
59338;SDS011;45117;50.960;5.500;2022-07-06T02:55:43;5.47;;;3.95;;
59338;SDS011;45117;50.960;5.500;2022-07-06T02:58:10;5.60;;;3.92;;
59338;SDS011;45117;50.960;5.500;2022-07-06T03:00:36;7.78;;;4.18;;
59338;SDS011;45117;50.960;5.500;2022-07-06T03:03:04;8.65;;;4.82;;
59338;SDS011;45117;50.960;5.500;2022-07-06T03:05:32;7.10;;;4.60;;
59338;SDS011;45117;50.960;5.500;2022-07-06T03:07:58;9.07;;;4.55;;
59338;SDS011;45117;50.960;5.500;2022-07-06T03:10:25;8.25;;;4.28;;
59338;SDS011;45117;50.960;5.500;2022-07-06T03:12:51;7.22;;;4.57;;
59338;SDS011;45117;50.960;5.500;2022-07-06T03:15:18;8.02;;;4.30;;
59338;SDS011;45117;50.960;5.500;2022-07-06T03:17:44;9.15;;;4.60;;
59338;SDS011;45117;50.960;5.500;2022-07-06T03:20:12;10.70;;;4.43;;
59338;SDS011;45117;50.960;5.500;2022-07-06T03:22:39;8.27;;;4.45;;
59338;SDS011;45117;50.960;5.500;2022-07-06T03:25:06;8.70;;;4.18;;
59338;SDS011;45117;50.960;5.500;2022-07-06T03:27:32;8.77;;;4.30;;
59338;SDS011;45117;50.960;5.500;2022-07-06T03:30:01;5.90;;;4.03;;
59338;SDS011;45117;50.960;5.500;2022-07-06T03:32:27;9.07;;;4.30;;
59338;SDS011;45117;50.960;5.500;2022-07-06T03:34:54;7.55;;;4.30;;
59338;SDS011;45117;50.960;5.500;2022-07-06T03:37:22;8.10;;;4.55;;
59338;SDS011;45117;50.960;5.500;2022-07-06T03:39:48;4.95;;;3.53;;
59338;SDS011;45117;50.960;5.500;2022-07-06T03:42:15;8.00;;;4.13;;
59338;SDS011;45117;50.960;5.500;2022-07-06T03:44:41;8.70;;;3.65;;
59338;SDS011;45117;50.960;5.500;2022-07-06T03:47:08;7.32;;;4.00;;
59338;SDS011;45117;50.960;5.500;2022-07-06T03:49:34;6.28;;;3.53;;
59338;SDS011;45117;50.960;5.500;2022-07-06T03:52:01;8.15;;;3.92;;
59338;SDS011;45117;50.960;5.500;2022-07-06T03:54:29;11.70;;;3.83;;
59338;SDS011;45117;50.960;5.500;2022-07-06T03:56:55;7.53;;;3.53;;
59338;SDS011;45117;50.960;5.500;2022-07-06T03:59:22;7.90;;;3.97;;
59338;SDS011;45117;50.960;5.500;2022-07-06T04:01:48;9.18;;;3.90;;
59338;SDS011;45117;50.960;5.500;2022-07-06T04:04:15;6.50;;;3.85;;
59338;SDS011;45117;50.960;5.500;2022-07-06T04:06:41;6.80;;;4.00;;
59338;SDS011;45117;50.960;5.500;2022-07-06T04:09:08;8.05;;;3.53;;
59338;SDS011;45117;50.960;5.500;2022-07-06T04:11:36;6.47;;;3.50;;
59338;SDS011;45117;50.960;5.500;2022-07-06T04:14:02;8.77;;;4.15;;
59338;SDS011;45117;50.960;5.500;2022-07-06T04:16:29;5.53;;;3.90;;
59338;SDS011;45117;50.960;5.500;2022-07-06T04:18:55;7.47;;;3.50;;
59338;SDS011;45117;50.960;5.500;2022-07-06T04:21:22;10.32;;;4.35;;
59338;SDS011;45117;50.960;5.500;2022-07-06T04:23:49;5.40;;;3.70;;
59338;SDS011;45117;50.960;5.500;2022-07-06T04:26:15;5.40;;;3.17;;
59338;SDS011;45117;50.960;5.500;2022-07-06T04:28:43;5.13;;;3.30;;
59338;SDS011;45117;50.960;5.500;2022-07-06T04:31:10;6.32;;;3.58;;
59338;SDS011;45117;50.960;5.500;2022-07-06T04:33:40;5.30;;;3.20;;
59338;SDS011;45117;50.960;5.500;2022-07-06T04:36:06;6.40;;;3.35;;
59338;SDS011;45117;50.960;5.500;2022-07-06T04:38:33;7.00;;;3.30;;
59338;SDS011;45117;50.960;5.500;2022-07-06T04:41:00;6.00;;;3.08;;
59338;SDS011;45117;50.960;5.500;2022-07-06T04:43:26;8.48;;;3.40;;
59338;SDS011;45117;50.960;5.500;2022-07-06T04:45:54;4.32;;;3.42;;
59338;SDS011;45117;50.960;5.500;2022-07-06T04:48:20;6.43;;;3.33;;
59338;SDS011;45117;50.960;5.500;2022-07-06T04:50:47;6.07;;;2.95;;
59338;SDS011;45117;50.960;5.500;2022-07-06T04:53:14;7.07;;;3.25;;
59338;SDS011;45117;50.960;5.500;2022-07-06T04:55:40;4.68;;;2.70;;
59338;SDS011;45117;50.960;5.500;2022-07-06T04:58:07;5.57;;;2.90;;
59338;SDS011;45117;50.960;5.500;2022-07-06T05:00:33;6.70;;;2.60;;
59338;SDS011;45117;50.960;5.500;2022-07-06T05:03:01;5.95;;;3.55;;
59338;SDS011;45117;50.960;5.500;2022-07-06T05:05:28;6.13;;;3.78;;
59338;SDS011;45117;50.960;5.500;2022-07-06T05:07:54;7.28;;;4.20;;
59338;SDS011;45117;50.960;5.500;2022-07-06T05:10:21;6.45;;;3.80;;
59338;SDS011;45117;50.960;5.500;2022-07-06T05:12:47;4.85;;;3.33;;
59338;SDS011;45117;50.960;5.500;2022-07-06T05:15:14;9.18;;;4.05;;
59338;SDS011;45117;50.960;5.500;2022-07-06T05:17:40;5.80;;;3.42;;
59338;SDS011;45117;50.960;5.500;2022-07-06T05:20:08;8.02;;;3.50;;
59338;SDS011;45117;50.960;5.500;2022-07-06T05:22:35;5.90;;;3.22;;
59338;SDS011;45117;50.960;5.500;2022-07-06T05:25:01;7.65;;;3.00;;
59338;SDS011;45117;50.960;5.500;2022-07-06T05:27:28;5.97;;;2.97;;
59338;SDS011;45117;50.960;5.500;2022-07-06T05:29:54;7.47;;;3.20;;
59338;SDS011;45117;50.960;5.500;2022-07-06T05:32:21;5.95;;;2.72;;
59338;SDS011;45117;50.960;5.500;2022-07-06T05:34:49;6.65;;;2.80;;
59338;SDS011;45117;50.960;5.500;2022-07-06T05:37:17;7.10;;;2.63;;
59338;SDS011;45117;50.960;5.500;2022-07-06T05:39:43;4.97;;;2.70;;
59338;SDS011;45117;50.960;5.500;2022-07-06T05:42:12;4.82;;;2.40;;
59338;SDS011;45117;50.960;5.500;2022-07-06T05:44:38;4.05;;;2.25;;
59338;SDS011;45117;50.960;5.500;2022-07-06T05:47:05;4.10;;;2.25;;
59338;SDS011;45117;50.960;5.500;2022-07-06T05:49:49;3.42;;;1.60;;
59338;SDS011;45117;50.960;5.500;2022-07-06T05:52:34;3.95;;;1.75;;
59338;SDS011;45117;50.960;5.500;2022-07-06T05:55:01;2.72;;;1.70;;
59338;SDS011;45117;50.960;5.500;2022-07-06T05:57:27;2.17;;;1.52;;
59338;SDS011;45117;50.960;5.500;2022-07-06T05:59:54;4.22;;;1.70;;
59338;SDS011;45117;50.960;5.500;2022-07-06T06:02:21;3.20;;;1.60;;
59338;SDS011;45117;50.960;5.500;2022-07-06T06:04:47;2.47;;;1.27;;
59338;SDS011;45117;50.960;5.500;2022-07-06T06:07:14;4.88;;;1.40;;
59338;SDS011;45117;50.960;5.500;2022-07-06T06:09:42;3.53;;;1.38;;
59338;SDS011;45117;50.960;5.500;2022-07-06T06:12:08;4.00;;;1.50;;
59338;SDS011;45117;50.960;5.500;2022-07-06T06:14:35;1.73;;;1.27;;
59338;SDS011;45117;50.960;5.500;2022-07-06T06:17:02;3.13;;;1.20;;
59338;SDS011;45117;50.960;5.500;2022-07-06T06:19:33;2.88;;;1.50;;
59338;SDS011;45117;50.960;5.500;2022-07-06T06:22:01;2.65;;;1.30;;
59338;SDS011;45117;50.960;5.500;2022-07-06T06:24:29;3.15;;;1.17;;
59338;SDS011;45117;50.960;5.500;2022-07-06T06:26:56;2.58;;;1.10;;
59338;SDS011;45117;50.960;5.500;2022-07-06T06:29:24;4.75;;;1.38;;
59338;SDS011;45117;50.960;5.500;2022-07-06T06:31:50;2.33;;;1.52;;
59338;SDS011;45117;50.960;5.500;2022-07-06T06:34:17;2.72;;;0.95;;
59338;SDS011;45117;50.960;5.500;2022-07-06T06:36:43;2.20;;;0.93;;
59338;SDS011;45117;50.960;5.500;2022-07-06T06:39:10;3.60;;;1.00;;
59338;SDS011;45117;50.960;5.500;2022-07-06T06:41:36;2.08;;;1.00;;
59338;SDS011;45117;50.960;5.500;2022-07-06T06:44:04;1.45;;;0.90;;
59338;SDS011;45117;50.960;5.500;2022-07-06T06:46:31;2.53;;;1.00;;
59338;SDS011;45117;50.960;5.500;2022-07-06T06:48:57;3.42;;;0.88;;
59338;SDS011;45117;50.960;5.500;2022-07-06T06:51:24;2.03;;;1.10;;
59338;SDS011;45117;50.960;5.500;2022-07-06T06:53:51;3.38;;;1.05;;
59338;SDS011;45117;50.960;5.500;2022-07-06T06:56:17;4.50;;;1.05;;
59338;SDS011;45117;50.960;5.500;2022-07-06T06:58:44;2.22;;;0.70;;
59338;SDS011;45117;50.960;5.500;2022-07-06T07:01:12;1.40;;;0.70;;
59338;SDS011;45117;50.960;5.500;2022-07-06T07:03:38;3.47;;;0.90;;
59338;SDS011;45117;50.960;5.500;2022-07-06T07:06:05;20.75;;;2.22;;
59338;SDS011;45117;50.960;5.500;2022-07-06T07:08:32;7.93;;;1.30;;
59338;SDS011;45117;50.960;5.500;2022-07-06T07:10:58;2.30;;;0.70;;
59338;SDS011;45117;50.960;5.500;2022-07-06T07:13:25;2.42;;;0.90;;
59338;SDS011;45117;50.960;5.500;2022-07-06T07:15:51;1.92;;;0.80;;
59338;SDS011;45117;50.960;5.500;2022-07-06T07:18:19;2.22;;;0.55;;
59338;SDS011;45117;50.960;5.500;2022-07-06T07:20:46;2.33;;;0.55;;
59338;SDS011;45117;50.960;5.500;2022-07-06T07:23:12;2.95;;;0.55;;
59338;SDS011;45117;50.960;5.500;2022-07-06T07:25:39;2.13;;;0.60;;
59338;SDS011;45117;50.960;5.500;2022-07-06T07:28:06;13.60;;;1.98;;
59338;SDS011;45117;50.960;5.500;2022-07-06T07:30:32;3.38;;;0.43;;
59338;SDS011;45117;50.960;5.500;2022-07-06T07:32:59;1.00;;;0.47;;
59338;SDS011;45117;50.960;5.500;2022-07-06T07:35:27;1.70;;;0.50;;
59338;SDS011;45117;50.960;5.500;2022-07-06T07:37:54;1.38;;;0.50;;
59338;SDS011;45117;50.960;5.500;2022-07-06T07:40:21;4.50;;;0.55;;
59338;SDS011;45117;50.960;5.500;2022-07-06T07:42:47;1.58;;;0.40;;
59338;SDS011;45117;50.960;5.500;2022-07-06T07:45:14;1.55;;;0.43;;
59338;SDS011;45117;50.960;5.500;2022-07-06T07:47:41;3.42;;;0.57;;
59338;SDS011;45117;50.960;5.500;2022-07-06T07:50:08;2.65;;;0.50;;
59338;SDS011;45117;50.960;5.500;2022-07-06T07:52:37;1.88;;;0.30;;
59338;SDS011;45117;50.960;5.500;2022-07-06T07:55:04;2.38;;;0.40;;
59338;SDS011;45117;50.960;5.500;2022-07-06T07:57:31;1.05;;;0.43;;
59338;SDS011;45117;50.960;5.500;2022-07-06T07:59:58;1.10;;;0.30;;
59338;SDS011;45117;50.960;5.500;2022-07-06T08:02:24;8.75;;;1.10;;
59338;SDS011;45117;50.960;5.500;2022-07-06T08:04:51;1.75;;;0.47;;
59338;SDS011;45117;50.960;5.500;2022-07-06T08:07:17;2.17;;;0.32;;
59338;SDS011;45117;50.960;5.500;2022-07-06T08:09:45;2.13;;;0.30;;
59338;SDS011;45117;50.960;5.500;2022-07-06T08:12:12;0.73;;;0.30;;
59338;SDS011;45117;50.960;5.500;2022-07-06T08:14:38;0.93;;;0.40;;
59338;SDS011;45117;50.960;5.500;2022-07-06T08:17:05;0.70;;;0.40;;
59338;SDS011;45117;50.960;5.500;2022-07-06T08:19:31;0.55;;;0.32;;
59338;SDS011;45117;50.960;5.500;2022-07-06T08:21:58;1.33;;;0.40;;
59338;SDS011;45117;50.960;5.500;2022-07-06T08:24:24;1.60;;;0.40;;
59338;SDS011;45117;50.960;5.500;2022-07-06T08:26:52;2.17;;;0.45;;
59338;SDS011;45117;50.960;5.500;2022-07-06T08:29:19;0.82;;;0.40;;
59338;SDS011;45117;50.960;5.500;2022-07-06T08:31:45;1.30;;;0.40;;
59338;SDS011;45117;50.960;5.500;2022-07-06T08:34:12;0.95;;;0.30;;
59338;SDS011;45117;50.960;5.500;2022-07-06T08:36:39;0.85;;;0.30;;
59338;SDS011;45117;50.960;5.500;2022-07-06T08:39:05;1.60;;;0.30;;
59338;SDS011;45117;50.960;5.500;2022-07-06T08:41:33;0.80;;;0.40;;
59338;SDS011;45117;50.960;5.500;2022-07-06T08:44:02;1.77;;;0.30;;
59338;SDS011;45117;50.960;5.500;2022-07-06T08:46:28;1.30;;;0.30;;
59338;SDS011;45117;50.960;5.500;2022-07-06T08:48:55;1.85;;;0.30;;
59338;SDS011;45117;50.960;5.500;2022-07-06T08:51:22;1.20;;;0.40;;
59338;SDS011;45117;50.960;5.500;2022-07-06T08:53:50;2.08;;;0.40;;
59338;SDS011;45117;50.960;5.500;2022-07-06T08:56:17;0.80;;;0.30;;
59338;SDS011;45117;50.960;5.500;2022-07-06T08:58:44;0.90;;;0.40;;
59338;SDS011;45117;50.960;5.500;2022-07-06T09:01:12;1.05;;;0.40;;
59338;SDS011;45117;50.960;5.500;2022-07-06T09:03:39;2.38;;;0.40;;
59338;SDS011;45117;50.960;5.500;2022-07-06T09:06:06;1.15;;;0.40;;
59338;SDS011;45117;50.960;5.500;2022-07-06T09:08:34;1.77;;;0.40;;
59338;SDS011;45117;50.960;5.500;2022-07-06T09:11:01;1.85;;;0.50;;
59338;SDS011;45117;50.960;5.500;2022-07-06T09:13:28;0.50;;;0.38;;
59338;SDS011;45117;50.960;5.500;2022-07-06T09:15:55;1.63;;;0.40;;
59338;SDS011;45117;50.960;5.500;2022-07-06T09:18:37;4.35;;;0.30;;
59338;SDS011;45117;50.960;5.500;2022-07-06T09:21:04;1.15;;;0.32;;
59338;SDS011;45117;50.960;5.500;2022-07-06T09:23:31;1.27;;;0.40;;
59338;SDS011;45117;50.960;5.500;2022-07-06T09:25:59;3.05;;;0.40;;
59338;SDS011;45117;50.960;5.500;2022-07-06T09:28:39;1.90;;;0.40;;
59338;SDS011;45117;50.960;5.500;2022-07-06T09:31:07;0.85;;;0.47;;
59338;SDS011;45117;50.960;5.500;2022-07-06T09:33:34;1.10;;;0.50;;
59338;SDS011;45117;50.960;5.500;2022-07-06T09:36:02;2.80;;;0.50;;
59338;SDS011;45117;50.960;5.500;2022-07-06T09:38:30;1.35;;;0.50;;
59338;SDS011;45117;50.960;5.500;2022-07-06T09:40:57;1.27;;;0.32;;
59338;SDS011;45117;50.960;5.500;2022-07-06T09:43:26;0.82;;;0.35;;
59338;SDS011;45117;50.960;5.500;2022-07-06T09:45:54;1.30;;;0.25;;
59338;SDS011;45117;50.960;5.500;2022-07-06T09:48:22;1.35;;;0.52;;
59338;SDS011;45117;50.960;5.500;2022-07-06T09:50:50;1.63;;;0.28;;
59338;SDS011;45117;50.960;5.500;2022-07-06T09:53:20;2.08;;;0.40;;
59338;SDS011;45117;50.960;5.500;2022-07-06T09:55:49;0.90;;;0.30;;
59338;SDS011;45117;50.960;5.500;2022-07-06T09:58:17;0.77;;;0.40;;
59338;SDS011;45117;50.960;5.500;2022-07-06T10:00:45;2.28;;;0.50;;
59338;SDS011;45117;50.960;5.500;2022-07-06T10:03:13;1.10;;;0.40;;
59338;SDS011;45117;50.960;5.500;2022-07-06T10:05:41;3.17;;;0.55;;
59338;SDS011;45117;50.960;5.500;2022-07-06T10:08:09;1.13;;;0.40;;
59338;SDS011;45117;50.960;5.500;2022-07-06T10:10:38;4.10;;;0.47;;
59338;SDS011;45117;50.960;5.500;2022-07-06T10:13:05;0.57;;;0.40;;
59338;SDS011;45117;50.960;5.500;2022-07-06T10:15:32;2.72;;;0.60;;
59338;SDS011;45117;50.960;5.500;2022-07-06T10:18:01;2.00;;;0.40;;
59338;SDS011;45117;50.960;5.500;2022-07-06T10:20:29;1.33;;;0.50;;
59338;SDS011;45117;50.960;5.500;2022-07-06T10:22:58;1.60;;;0.40;;
59338;SDS011;45117;50.960;5.500;2022-07-06T10:25:25;2.58;;;0.50;;
59338;SDS011;45117;50.960;5.500;2022-07-06T10:27:54;0.82;;;0.50;;
59338;SDS011;45117;50.960;5.500;2022-07-06T10:30:22;1.98;;;0.50;;
59338;SDS011;45117;50.960;5.500;2022-07-06T10:32:50;0.65;;;0.40;;
59338;SDS011;45117;50.960;5.500;2022-07-06T10:35:17;1.48;;;0.45;;
59338;SDS011;45117;50.960;5.500;2022-07-06T10:37:45;2.65;;;0.50;;
59338;SDS011;45117;50.960;5.500;2022-07-06T10:40:31;1.63;;;0.55;;
59338;SDS011;45117;50.960;5.500;2022-07-06T10:43:17;2.00;;;0.60;;
59338;SDS011;45117;50.960;5.500;2022-07-06T10:45:50;2.88;;;0.60;;
59338;SDS011;45117;50.960;5.500;2022-07-06T10:48:18;1.63;;;0.40;;
59338;SDS011;45117;50.960;5.500;2022-07-06T10:50:46;0.95;;;0.50;;
59338;SDS011;45117;50.960;5.500;2022-07-06T10:53:15;1.75;;;0.40;;
59338;SDS011;45117;50.960;5.500;2022-07-06T10:55:43;1.42;;;0.65;;
59338;SDS011;45117;50.960;5.500;2022-07-06T10:58:12;2.78;;;0.50;;
59338;SDS011;45117;50.960;5.500;2022-07-06T11:00:48;4.70;;;0.98;;
59338;SDS011;45117;50.960;5.500;2022-07-06T11:06:04;1.70;;;0.50;;
59338;SDS011;45117;50.960;5.500;2022-07-06T11:08:45;3.10;;;0.60;;
59338;SDS011;45117;50.960;5.500;2022-07-06T11:11:16;2.15;;;0.60;;
59338;SDS011;45117;50.960;5.500;2022-07-06T11:13:48;2.08;;;0.82;;
59338;SDS011;45117;50.960;5.500;2022-07-06T11:16:20;3.25;;;0.80;;
59338;SDS011;45117;50.960;5.500;2022-07-06T11:18:49;2.03;;;0.73;;
59338;SDS011;45117;50.960;5.500;2022-07-06T11:21:31;2.80;;;0.70;;
59338;SDS011;45117;50.960;5.500;2022-07-06T11:23:58;2.60;;;0.60;;
59338;SDS011;45117;50.960;5.500;2022-07-06T11:26:25;3.58;;;0.80;;
59338;SDS011;45117;50.960;5.500;2022-07-06T11:28:53;0.80;;;0.80;;
59338;SDS011;45117;50.960;5.500;2022-07-06T11:31:22;3.58;;;0.77;;
59338;SDS011;45117;50.960;5.500;2022-07-06T11:33:48;2.20;;;0.75;;
59338;SDS011;45117;50.960;5.500;2022-07-06T11:36:16;2.50;;;1.10;;
59338;SDS011;45117;50.960;5.500;2022-07-06T11:38:44;4.20;;;0.90;;
59338;SDS011;45117;50.960;5.500;2022-07-06T11:41:11;1.90;;;0.77;;
59338;SDS011;45117;50.960;5.500;2022-07-06T11:43:39;2.17;;;0.90;;
59338;SDS011;45117;50.960;5.500;2022-07-06T11:46:24;1.88;;;0.70;;
59338;SDS011;45117;50.960;5.500;2022-07-06T11:48:53;2.97;;;1.25;;
59338;SDS011;45117;50.960;5.500;2022-07-06T11:51:21;2.78;;;1.00;;
59338;SDS011;45117;50.960;5.500;2022-07-06T11:53:50;2.60;;;0.90;;
59338;SDS011;45117;50.960;5.500;2022-07-06T11:56:17;4.47;;;1.00;;
59338;SDS011;45117;50.960;5.500;2022-07-06T11:58:46;2.22;;;0.80;;
59338;SDS011;45117;50.960;5.500;2022-07-06T12:01:15;3.10;;;0.95;;
59338;SDS011;45117;50.960;5.500;2022-07-06T12:03:43;2.58;;;0.88;;
59338;SDS011;45117;50.960;5.500;2022-07-06T12:06:14;4.15;;;1.05;;
59338;SDS011;45117;50.960;5.500;2022-07-06T12:08:43;2.88;;;0.90;;
59338;SDS011;45117;50.960;5.500;2022-07-06T12:11:10;3.55;;;1.10;;
59338;SDS011;45117;50.960;5.500;2022-07-06T12:13:43;2.60;;;0.90;;
59338;SDS011;45117;50.960;5.500;2022-07-06T12:16:10;3.17;;;0.98;;
59338;SDS011;45117;50.960;5.500;2022-07-06T12:18:38;4.35;;;0.93;;
59338;SDS011;45117;50.960;5.500;2022-07-06T12:21:08;2.28;;;0.98;;
59338;SDS011;45117;50.960;5.500;2022-07-06T12:23:39;1.70;;;0.75;;
59338;SDS011;45117;50.960;5.500;2022-07-06T12:26:07;2.35;;;0.90;;
59338;SDS011;45117;50.960;5.500;2022-07-06T12:28:34;3.50;;;1.00;;
59338;SDS011;45117;50.960;5.500;2022-07-06T12:31:00;5.97;;;1.45;;
59338;SDS011;45117;50.960;5.500;2022-07-06T12:33:27;2.03;;;0.93;;
59338;SDS011;45117;50.960;5.500;2022-07-06T12:35:53;2.08;;;1.00;;
59338;SDS011;45117;50.960;5.500;2022-07-06T12:38:22;2.20;;;0.82;;
59338;SDS011;45117;50.960;5.500;2022-07-06T12:40:50;4.82;;;0.90;;
59338;SDS011;45117;50.960;5.500;2022-07-06T12:48:56;2.33;;;0.90;;
59338;SDS011;45117;50.960;5.500;2022-07-06T12:51:23;3.95;;;0.90;;
59338;SDS011;45117;50.960;5.500;2022-07-06T12:53:51;3.40;;;0.93;;
59338;SDS011;45117;50.960;5.500;2022-07-06T12:56:18;2.97;;;1.00;;
59338;SDS011;45117;50.960;5.500;2022-07-06T12:58:57;3.30;;;1.10;;
59338;SDS011;45117;50.960;5.500;2022-07-06T13:01:24;2.90;;;1.30;;
59338;SDS011;45117;50.960;5.500;2022-07-06T13:03:53;3.03;;;1.00;;
59338;SDS011;45117;50.960;5.500;2022-07-06T13:06:28;3.97;;;0.90;;
59338;SDS011;45117;50.960;5.500;2022-07-06T13:08:58;3.00;;;0.93;;
59338;SDS011;45117;50.960;5.500;2022-07-06T13:11:24;5.47;;;1.10;;
59338;SDS011;45117;50.960;5.500;2022-07-06T13:13:51;2.05;;;0.98;;
59338;SDS011;45117;50.960;5.500;2022-07-06T13:16:17;3.90;;;1.30;;
59338;SDS011;45117;50.960;5.500;2022-07-06T13:18:44;1.65;;;0.90;;
59338;SDS011;45117;50.960;5.500;2022-07-06T13:21:10;2.63;;;1.15;;
59338;SDS011;45117;50.960;5.500;2022-07-06T13:23:37;2.60;;;1.10;;
59338;SDS011;45117;50.960;5.500;2022-07-06T13:26:05;2.50;;;0.80;;
59338;SDS011;45117;50.960;5.500;2022-07-06T13:28:32;3.67;;;1.08;;
59338;SDS011;45117;50.960;5.500;2022-07-06T13:30:59;3.78;;;0.88;;
59338;SDS011;45117;50.960;5.500;2022-07-06T13:33:25;3.47;;;1.20;;
59338;SDS011;45117;50.960;5.500;2022-07-06T13:35:52;4.50;;;1.30;;
59338;SDS011;45117;50.960;5.500;2022-07-06T13:38:18;3.28;;;1.27;;
59338;SDS011;45117;50.960;5.500;2022-07-06T13:40:45;2.25;;;0.73;;
59338;SDS011;45117;50.960;5.500;2022-07-06T13:43:13;2.92;;;1.05;;
59338;SDS011;45117;50.960;5.500;2022-07-06T13:45:40;2.42;;;0.73;;
59338;SDS011;45117;50.960;5.500;2022-07-06T13:48:07;3.78;;;0.90;;
59338;SDS011;45117;50.960;5.500;2022-07-06T13:50:33;2.92;;;0.82;;
59338;SDS011;45117;50.960;5.500;2022-07-06T13:53:00;4.32;;;1.08;;
59338;SDS011;45117;50.960;5.500;2022-07-06T13:55:26;3.20;;;1.10;;
59338;SDS011;45117;50.960;5.500;2022-07-06T13:57:53;4.07;;;1.00;;
59338;SDS011;45117;50.960;5.500;2022-07-06T14:00:21;6.50;;;1.30;;
59338;SDS011;45117;50.960;5.500;2022-07-06T14:02:48;3.38;;;1.17;;
59338;SDS011;45117;50.960;5.500;2022-07-06T14:05:14;3.72;;;1.10;;
59338;SDS011;45117;50.960;5.500;2022-07-06T14:07:41;3.33;;;1.20;;
59338;SDS011;45117;50.960;5.500;2022-07-06T14:10:08;64.82;;;39.80;;
59338;SDS011;45117;50.960;5.500;2022-07-06T14:12:34;76.85;;;36.35;;
59338;SDS011;45117;50.960;5.500;2022-07-06T14:15:01;78.20;;;35.92;;
59338;SDS011;45117;50.960;5.500;2022-07-06T14:17:29;62.28;;;23.55;;
59338;SDS011;45117;50.960;5.500;2022-07-06T14:19:55;25.60;;;10.77;;
59338;SDS011;45117;50.960;5.500;2022-07-06T14:22:22;13.73;;;7.18;;
59338;SDS011;45117;50.960;5.500;2022-07-06T14:24:48;4.45;;;2.58;;
59338;SDS011;45117;50.960;5.500;2022-07-06T14:27:15;8.32;;;3.63;;
59338;SDS011;45117;50.960;5.500;2022-07-06T14:29:41;7.72;;;3.20;;
59338;SDS011;45117;50.960;5.500;2022-07-06T14:32:08;4.88;;;2.35;;
59338;SDS011;45117;50.960;5.500;2022-07-06T14:34:36;4.53;;;1.80;;
59338;SDS011;45117;50.960;5.500;2022-07-06T14:37:02;4.50;;;1.50;;
59338;SDS011;45117;50.960;5.500;2022-07-06T14:39:29;4.05;;;1.55;;
59338;SDS011;45117;50.960;5.500;2022-07-06T14:41:56;5.07;;;1.98;;
59338;SDS011;45117;50.960;5.500;2022-07-06T14:44:23;4.32;;;1.50;;
59338;SDS011;45117;50.960;5.500;2022-07-06T14:46:49;4.15;;;1.40;;
59338;SDS011;45117;50.960;5.500;2022-07-06T14:49:16;11.88;;;5.15;;
59338;SDS011;45117;50.960;5.500;2022-07-06T14:51:44;3.53;;;1.67;;
59338;SDS011;45117;50.960;5.500;2022-07-06T14:54:10;4.18;;;1.45;;
59338;SDS011;45117;50.960;5.500;2022-07-06T14:56:37;3.80;;;1.70;;
59338;SDS011;45117;50.960;5.500;2022-07-06T14:59:03;5.25;;;2.45;;